sensor_id;sensor_type;location;lat;lon;timestamp;P1;durP1;ratioP1;P2;durP2;ratioP2
73452;SDS011;61687;56.232;43.854;2023-05-18T00:02:01;41.73;;;21.87;;
73452;SDS011;61687;56.232;43.854;2023-05-18T00:04:34;47.35;;;23.50;;
73452;SDS011;61687;56.232;43.854;2023-05-18T00:07:01;41.60;;;24.30;;
73452;SDS011;61687;56.232;43.854;2023-05-18T00:09:30;47.20;;;24.83;;
73452;SDS011;61687;56.232;43.854;2023-05-18T00:11:57;40.50;;;24.80;;
73452;SDS011;61687;56.232;43.854;2023-05-18T00:14:24;39.33;;;24.80;;
73452;SDS011;61687;56.232;43.854;2023-05-18T00:16:50;39.63;;;22.02;;
73452;SDS011;61687;56.232;43.854;2023-05-18T00:19:18;43.10;;;24.20;;
73452;SDS011;61687;56.232;43.854;2023-05-18T00:21:45;47.15;;;24.60;;
73452;SDS011;61687;56.232;43.854;2023-05-18T00:24:13;41.25;;;25.15;;
73452;SDS011;61687;56.232;43.854;2023-05-18T00:26:40;42.23;;;23.23;;
73452;SDS011;61687;56.232;43.854;2023-05-18T00:29:07;37.97;;;23.23;;
73452;SDS011;61687;56.232;43.854;2023-05-18T00:31:34;48.17;;;24.52;;
73452;SDS011;61687;56.232;43.854;2023-05-18T00:34:03;40.20;;;23.33;;
73452;SDS011;61687;56.232;43.854;2023-05-18T00:36:32;39.75;;;22.85;;
73452;SDS011;61687;56.232;43.854;2023-05-18T00:38:59;38.67;;;22.07;;
73452;SDS011;61687;56.232;43.854;2023-05-18T00:41:26;41.83;;;22.30;;
73452;SDS011;61687;56.232;43.854;2023-05-18T00:43:52;37.97;;;21.88;;
73452;SDS011;61687;56.232;43.854;2023-05-18T00:46:19;40.08;;;22.35;;
73452;SDS011;61687;56.232;43.854;2023-05-18T00:48:46;38.63;;;22.30;;
73452;SDS011;61687;56.232;43.854;2023-05-18T00:51:14;36.63;;;21.83;;
73452;SDS011;61687;56.232;43.854;2023-05-18T00:53:41;36.10;;;21.45;;
73452;SDS011;61687;56.232;43.854;2023-05-18T00:56:08;40.67;;;22.50;;
73452;SDS011;61687;56.232;43.854;2023-05-18T00:58:35;43.15;;;22.17;;
73452;SDS011;61687;56.232;43.854;2023-05-18T01:01:02;38.53;;;22.30;;
73452;SDS011;61687;56.232;43.854;2023-05-18T01:03:34;38.57;;;21.73;;
73452;SDS011;61687;56.232;43.854;2023-05-18T01:06:05;35.58;;;22.10;;
73452;SDS011;61687;56.232;43.854;2023-05-18T01:08:31;42.22;;;22.48;;
73452;SDS011;61687;56.232;43.854;2023-05-18T01:11:04;42.47;;;23.48;;
73452;SDS011;61687;56.232;43.854;2023-05-18T01:16:42;38.73;;;21.63;;
73452;SDS011;61687;56.232;43.854;2023-05-18T01:25:02;38.85;;;22.40;;
73452;SDS011;61687;56.232;43.854;2023-05-18T01:27:35;41.15;;;22.15;;
73452;SDS011;61687;56.232;43.854;2023-05-18T01:30:07;40.37;;;21.77;;
73452;SDS011;61687;56.232;43.854;2023-05-18T01:32:40;37.42;;;22.65;;
73452;SDS011;61687;56.232;43.854;2023-05-18T01:35:07;37.00;;;21.92;;
73452;SDS011;61687;56.232;43.854;2023-05-18T01:37:33;37.55;;;22.35;;
73452;SDS011;61687;56.232;43.854;2023-05-18T01:39:59;37.33;;;21.10;;
73452;SDS011;61687;56.232;43.854;2023-05-18T01:42:30;40.33;;;21.97;;
73452;SDS011;61687;56.232;43.854;2023-05-18T01:45:06;39.80;;;22.35;;
73452;SDS011;61687;56.232;43.854;2023-05-18T01:47:36;38.85;;;23.50;;
73452;SDS011;61687;56.232;43.854;2023-05-18T01:50:09;43.85;;;22.70;;
73452;SDS011;61687;56.232;43.854;2023-05-18T01:55:18;43.93;;;23.13;;
73452;SDS011;61687;56.232;43.854;2023-05-18T01:57:46;42.10;;;23.02;;
73452;SDS011;61687;56.232;43.854;2023-05-18T02:00:15;40.05;;;23.42;;
73452;SDS011;61687;56.232;43.854;2023-05-18T02:02:43;44.60;;;24.67;;
73452;SDS011;61687;56.232;43.854;2023-05-18T02:05:12;46.60;;;23.95;;
73452;SDS011;61687;56.232;43.854;2023-05-18T02:07:39;40.07;;;23.90;;
73452;SDS011;61687;56.232;43.854;2023-05-18T02:10:08;39.25;;;24.73;;
73452;SDS011;61687;56.232;43.854;2023-05-18T02:12:35;46.70;;;24.88;;
73452;SDS011;61687;56.232;43.854;2023-05-18T02:15:04;41.58;;;24.25;;
73452;SDS011;61687;56.232;43.854;2023-05-18T02:17:35;47.15;;;24.85;;
73452;SDS011;61687;56.232;43.854;2023-05-18T02:20:24;42.43;;;23.47;;
73452;SDS011;61687;56.232;43.854;2023-05-18T02:22:50;39.75;;;24.20;;
73452;SDS011;61687;56.232;43.854;2023-05-18T02:25:18;45.78;;;25.35;;
73452;SDS011;61687;56.232;43.854;2023-05-18T02:27:46;44.67;;;24.63;;
73452;SDS011;61687;56.232;43.854;2023-05-18T02:30:15;56.63;;;29.63;;
73452;SDS011;61687;56.232;43.854;2023-05-18T02:32:42;64.63;;;34.07;;
73452;SDS011;61687;56.232;43.854;2023-05-18T02:35:14;43.65;;;25.27;;
73452;SDS011;61687;56.232;43.854;2023-05-18T02:37:42;40.60;;;24.73;;
73452;SDS011;61687;56.232;43.854;2023-05-18T02:40:12;41.08;;;24.42;;
73452;SDS011;61687;56.232;43.854;2023-05-18T02:42:41;39.63;;;23.73;;
73452;SDS011;61687;56.232;43.854;2023-05-18T02:45:08;48.00;;;24.23;;
73452;SDS011;61687;56.232;43.854;2023-05-18T02:47:36;53.53;;;24.60;;
73452;SDS011;61687;56.232;43.854;2023-05-18T02:50:02;61.55;;;25.75;;
73452;SDS011;61687;56.232;43.854;2023-05-18T02:52:34;55.55;;;24.17;;
73452;SDS011;61687;56.232;43.854;2023-05-18T02:55:01;49.92;;;24.65;;
73452;SDS011;61687;56.232;43.854;2023-05-18T02:57:47;50.20;;;24.63;;
73452;SDS011;61687;56.232;43.854;2023-05-18T03:00:19;46.55;;;24.73;;
73452;SDS011;61687;56.232;43.854;2023-05-18T03:02:46;45.35;;;25.77;;
73452;SDS011;61687;56.232;43.854;2023-05-18T03:05:15;47.45;;;27.30;;
73452;SDS011;61687;56.232;43.854;2023-05-18T03:07:41;44.13;;;27.70;;
73452;SDS011;61687;56.232;43.854;2023-05-18T03:10:16;53.53;;;28.60;;
73452;SDS011;61687;56.232;43.854;2023-05-18T03:12:43;50.42;;;27.83;;
73452;SDS011;61687;56.232;43.854;2023-05-18T03:15:10;53.90;;;28.60;;
73452;SDS011;61687;56.232;43.854;2023-05-18T03:17:39;49.55;;;29.10;;
73452;SDS011;61687;56.232;43.854;2023-05-18T03:20:08;47.83;;;29.10;;
73452;SDS011;61687;56.232;43.854;2023-05-18T03:22:37;52.80;;;29.77;;
73452;SDS011;61687;56.232;43.854;2023-05-18T03:25:03;49.17;;;28.10;;
73452;SDS011;61687;56.232;43.854;2023-05-18T03:27:31;48.10;;;29.70;;
73452;SDS011;61687;56.232;43.854;2023-05-18T03:29:58;54.90;;;31.25;;
73452;SDS011;61687;56.232;43.854;2023-05-18T03:32:25;53.85;;;28.83;;
73452;SDS011;61687;56.232;43.854;2023-05-18T03:34:53;50.53;;;30.47;;
73452;SDS011;61687;56.232;43.854;2023-05-18T03:37:20;51.30;;;29.95;;
73452;SDS011;61687;56.232;43.854;2023-05-18T03:39:46;52.42;;;30.77;;
73452;SDS011;61687;56.232;43.854;2023-05-18T03:42:13;50.58;;;30.00;;
73452;SDS011;61687;56.232;43.854;2023-05-18T03:44:40;57.08;;;30.80;;
73452;SDS011;61687;56.232;43.854;2023-05-18T03:47:06;66.17;;;29.27;;
73452;SDS011;61687;56.232;43.854;2023-05-18T03:49:32;57.42;;;30.25;;
73452;SDS011;61687;56.232;43.854;2023-05-18T03:51:59;49.58;;;29.05;;
73452;SDS011;61687;56.232;43.854;2023-05-18T03:54:29;53.53;;;29.27;;
73452;SDS011;61687;56.232;43.854;2023-05-18T03:56:54;52.90;;;29.63;;
73452;SDS011;61687;56.232;43.854;2023-05-18T03:59:21;51.23;;;28.27;;
73452;SDS011;61687;56.232;43.854;2023-05-18T04:01:46;51.13;;;30.15;;
73452;SDS011;61687;56.232;43.854;2023-05-18T04:04:12;48.47;;;30.67;;
73452;SDS011;61687;56.232;43.854;2023-05-18T04:06:43;55.30;;;31.25;;
73452;SDS011;61687;56.232;43.854;2023-05-18T04:09:11;51.90;;;29.42;;
73452;SDS011;61687;56.232;43.854;2023-05-18T04:11:40;48.90;;;30.37;;
73452;SDS011;61687;56.232;43.854;2023-05-18T04:14:06;48.65;;;31.00;;
73452;SDS011;61687;56.232;43.854;2023-05-18T04:16:35;56.70;;;32.13;;
73452;SDS011;61687;56.232;43.854;2023-05-18T04:19:01;52.75;;;32.58;;
73452;SDS011;61687;56.232;43.854;2023-05-18T04:21:30;56.60;;;32.50;;
73452;SDS011;61687;56.232;43.854;2023-05-18T04:24:00;54.63;;;32.10;;
73452;SDS011;61687;56.232;43.854;2023-05-18T04:26:31;64.00;;;34.28;;
73452;SDS011;61687;56.232;43.854;2023-05-18T04:28:59;54.28;;;33.45;;
73452;SDS011;61687;56.232;43.854;2023-05-18T04:31:25;58.25;;;34.30;;
73452;SDS011;61687;56.232;43.854;2023-05-18T04:33:52;56.50;;;35.23;;
73452;SDS011;61687;56.232;43.854;2023-05-18T04:36:19;59.28;;;33.88;;
73452;SDS011;61687;56.232;43.854;2023-05-18T04:38:45;60.60;;;35.53;;
73452;SDS011;61687;56.232;43.854;2023-05-18T04:41:11;66.88;;;33.92;;
73452;SDS011;61687;56.232;43.854;2023-05-18T04:43:38;62.22;;;32.47;;
73452;SDS011;61687;56.232;43.854;2023-05-18T04:46:04;62.67;;;33.40;;
73452;SDS011;61687;56.232;43.854;2023-05-18T04:48:32;59.03;;;33.45;;
73452;SDS011;61687;56.232;43.854;2023-05-18T04:51:00;62.22;;;35.35;;
73452;SDS011;61687;56.232;43.854;2023-05-18T04:53:29;73.50;;;37.97;;
73452;SDS011;61687;56.232;43.854;2023-05-18T04:55:58;56.28;;;35.55;;
73452;SDS011;61687;56.232;43.854;2023-05-18T04:58:27;55.73;;;33.37;;
73452;SDS011;61687;56.232;43.854;2023-05-18T05:00:55;61.97;;;33.33;;
73452;SDS011;61687;56.232;43.854;2023-05-18T05:03:21;65.93;;;35.25;;
73452;SDS011;61687;56.232;43.854;2023-05-18T05:05:47;60.30;;;33.40;;
73452;SDS011;61687;56.232;43.854;2023-05-18T05:08:13;66.47;;;33.07;;
73452;SDS011;61687;56.232;43.854;2023-05-18T05:10:40;61.70;;;33.85;;
73452;SDS011;61687;56.232;43.854;2023-05-18T05:13:06;65.20;;;35.83;;
73452;SDS011;61687;56.232;43.854;2023-05-18T05:15:34;60.63;;;34.38;;
73452;SDS011;61687;56.232;43.854;2023-05-18T05:18:00;70.93;;;38.43;;
73452;SDS011;61687;56.232;43.854;2023-05-18T05:20:26;77.00;;;38.30;;
73452;SDS011;61687;56.232;43.854;2023-05-18T05:22:52;79.22;;;39.05;;
73452;SDS011;61687;56.232;43.854;2023-05-18T05:25:22;65.93;;;37.63;;
73452;SDS011;61687;56.232;43.854;2023-05-18T05:27:49;63.78;;;34.85;;
73452;SDS011;61687;56.232;43.854;2023-05-18T05:30:18;69.40;;;35.80;;
73452;SDS011;61687;56.232;43.854;2023-05-18T05:32:44;59.75;;;33.85;;
73452;SDS011;61687;56.232;43.854;2023-05-18T05:35:10;61.60;;;33.15;;
73452;SDS011;61687;56.232;43.854;2023-05-18T05:37:36;70.15;;;33.63;;
73452;SDS011;61687;56.232;43.854;2023-05-18T05:40:03;58.47;;;34.15;;
73452;SDS011;61687;56.232;43.854;2023-05-18T05:42:36;73.87;;;36.67;;
73452;SDS011;61687;56.232;43.854;2023-05-18T05:45:02;80.45;;;39.55;;
73452;SDS011;61687;56.232;43.854;2023-05-18T05:47:30;73.25;;;37.78;;
73452;SDS011;61687;56.232;43.854;2023-05-18T05:49:56;69.10;;;39.95;;
73452;SDS011;61687;56.232;43.854;2023-05-18T05:52:22;79.43;;;37.53;;
73452;SDS011;61687;56.232;43.854;2023-05-18T05:54:49;80.18;;;40.13;;
73452;SDS011;61687;56.232;43.854;2023-05-18T05:57:15;90.68;;;45.53;;
73452;SDS011;61687;56.232;43.854;2023-05-18T05:59:41;100.10;;;47.50;;
73452;SDS011;61687;56.232;43.854;2023-05-18T06:02:07;101.90;;;50.33;;
73452;SDS011;61687;56.232;43.854;2023-05-18T06:04:33;113.57;;;50.28;;
73452;SDS011;61687;56.232;43.854;2023-05-18T06:07:00;115.32;;;52.78;;
73452;SDS011;61687;56.232;43.854;2023-05-18T06:09:27;93.18;;;49.83;;
73452;SDS011;61687;56.232;43.854;2023-05-18T06:11:53;104.68;;;49.70;;
73452;SDS011;61687;56.232;43.854;2023-05-18T06:14:19;96.10;;;49.67;;
73452;SDS011;61687;56.232;43.854;2023-05-18T06:16:46;102.18;;;50.35;;
73452;SDS011;61687;56.232;43.854;2023-05-18T06:19:12;102.90;;;49.40;;
73452;SDS011;61687;56.232;43.854;2023-05-18T06:21:38;94.95;;;48.65;;
73452;SDS011;61687;56.232;43.854;2023-05-18T06:24:05;89.50;;;46.13;;
73452;SDS011;61687;56.232;43.854;2023-05-18T06:26:50;111.30;;;49.10;;
73452;SDS011;61687;56.232;43.854;2023-05-18T06:29:32;93.50;;;46.88;;
73452;SDS011;61687;56.232;43.854;2023-05-18T06:32:01;101.68;;;47.67;;
73452;SDS011;61687;56.232;43.854;2023-05-18T06:34:37;94.43;;;46.47;;
73452;SDS011;61687;56.232;43.854;2023-05-18T06:37:04;89.82;;;43.05;;
73452;SDS011;61687;56.232;43.854;2023-05-18T06:39:30;77.30;;;42.03;;
73452;SDS011;61687;56.232;43.854;2023-05-18T06:41:56;76.50;;;39.95;;
73452;SDS011;61687;56.232;43.854;2023-05-18T06:44:25;75.88;;;37.90;;
73452;SDS011;61687;56.232;43.854;2023-05-18T06:47:03;77.68;;;39.65;;
73452;SDS011;61687;56.232;43.854;2023-05-18T06:49:30;61.33;;;31.10;;
73452;SDS011;61687;56.232;43.854;2023-05-18T06:51:56;65.57;;;31.30;;
73452;SDS011;61687;56.232;43.854;2023-05-18T06:54:22;47.10;;;21.63;;
73452;SDS011;61687;56.232;43.854;2023-05-18T06:56:48;37.23;;;16.43;;
73452;SDS011;61687;56.232;43.854;2023-05-18T06:59:15;30.80;;;11.67;;
73452;SDS011;61687;56.232;43.854;2023-05-18T07:01:40;29.75;;;12.82;;
73452;SDS011;61687;56.232;43.854;2023-05-18T07:04:06;30.05;;;14.07;;
73452;SDS011;61687;56.232;43.854;2023-05-18T07:06:32;17.80;;;9.18;;
73452;SDS011;61687;56.232;43.854;2023-05-18T07:08:58;29.63;;;17.53;;
73452;SDS011;61687;56.232;43.854;2023-05-18T07:11:24;21.40;;;9.27;;
73452;SDS011;61687;56.232;43.854;2023-05-18T07:13:50;23.75;;;11.52;;
73452;SDS011;61687;56.232;43.854;2023-05-18T07:16:16;15.73;;;6.93;;
73452;SDS011;61687;56.232;43.854;2023-05-18T07:18:42;16.63;;;5.97;;
73452;SDS011;61687;56.232;43.854;2023-05-18T07:21:08;21.93;;;9.67;;
73452;SDS011;61687;56.232;43.854;2023-05-18T07:23:34;9.40;;;5.22;;
73452;SDS011;61687;56.232;43.854;2023-05-18T07:26:00;5.30;;;2.90;;
73452;SDS011;61687;56.232;43.854;2023-05-18T07:28:26;5.53;;;2.97;;
73452;SDS011;61687;56.232;43.854;2023-05-18T07:30:52;9.77;;;4.70;;
73452;SDS011;61687;56.232;43.854;2023-05-18T07:33:18;4.68;;;2.83;;
73452;SDS011;61687;56.232;43.854;2023-05-18T07:35:44;7.27;;;3.23;;
73452;SDS011;61687;56.232;43.854;2023-05-18T07:38:10;8.57;;;3.08;;
73452;SDS011;61687;56.232;43.854;2023-05-18T07:40:36;5.28;;;3.80;;
73452;SDS011;61687;56.232;43.854;2023-05-18T07:43:02;6.28;;;2.78;;
73452;SDS011;61687;56.232;43.854;2023-05-18T07:45:27;19.47;;;13.37;;
73452;SDS011;61687;56.232;43.854;2023-05-18T07:47:53;5.78;;;3.17;;
73452;SDS011;61687;56.232;43.854;2023-05-18T07:50:19;5.15;;;3.05;;
73452;SDS011;61687;56.232;43.854;2023-05-18T07:52:46;6.55;;;2.67;;
73452;SDS011;61687;56.232;43.854;2023-05-18T07:55:12;4.17;;;2.43;;
73452;SDS011;61687;56.232;43.854;2023-05-18T07:57:38;7.00;;;2.60;;
73452;SDS011;61687;56.232;43.854;2023-05-18T08:00:04;4.85;;;3.05;;
73452;SDS011;61687;56.232;43.854;2023-05-18T08:02:38;6.53;;;4.65;;
73452;SDS011;61687;56.232;43.854;2023-05-18T08:05:04;11.40;;;6.10;;
73452;SDS011;61687;56.232;43.854;2023-05-18T08:07:31;5.93;;;3.90;;
73452;SDS011;61687;56.232;43.854;2023-05-18T08:09:57;9.40;;;3.60;;
73452;SDS011;61687;56.232;43.854;2023-05-18T08:12:23;5.22;;;3.30;;
73452;SDS011;61687;56.232;43.854;2023-05-18T08:14:49;5.20;;;3.13;;
73452;SDS011;61687;56.232;43.854;2023-05-18T08:17:15;7.63;;;2.83;;
73452;SDS011;61687;56.232;43.854;2023-05-18T08:19:42;3.95;;;2.17;;
73452;SDS011;61687;56.232;43.854;2023-05-18T08:22:08;4.63;;;3.05;;
73452;SDS011;61687;56.232;43.854;2023-05-18T08:24:35;4.20;;;2.55;;
73452;SDS011;61687;56.232;43.854;2023-05-18T08:27:01;11.83;;;3.10;;
73452;SDS011;61687;56.232;43.854;2023-05-18T08:29:27;6.28;;;2.53;;
73452;SDS011;61687;56.232;43.854;2023-05-18T08:31:53;8.40;;;4.78;;
73452;SDS011;61687;56.232;43.854;2023-05-18T08:34:19;4.07;;;2.87;;
73452;SDS011;61687;56.232;43.854;2023-05-18T08:36:46;7.37;;;2.43;;
73452;SDS011;61687;56.232;43.854;2023-05-18T08:39:12;4.43;;;2.30;;
73452;SDS011;61687;56.232;43.854;2023-05-18T08:41:39;4.88;;;2.33;;
73452;SDS011;61687;56.232;43.854;2023-05-18T08:44:15;4.30;;;2.30;;
73452;SDS011;61687;56.232;43.854;2023-05-18T08:46:49;6.13;;;2.70;;
73452;SDS011;61687;56.232;43.854;2023-05-18T08:49:16;10.98;;;3.22;;
73452;SDS011;61687;56.232;43.854;2023-05-18T08:51:45;5.70;;;3.28;;
73452;SDS011;61687;56.232;43.854;2023-05-18T08:54:23;8.05;;;3.25;;
73452;SDS011;61687;56.232;43.854;2023-05-18T08:56:49;6.33;;;2.60;;
73452;SDS011;61687;56.232;43.854;2023-05-18T08:59:23;5.32;;;3.55;;
73452;SDS011;61687;56.232;43.854;2023-05-18T09:01:51;6.72;;;3.13;;
73452;SDS011;61687;56.232;43.854;2023-05-18T09:04:20;9.80;;;3.50;;
73452;SDS011;61687;56.232;43.854;2023-05-18T09:06:46;6.80;;;3.30;;
73452;SDS011;61687;56.232;43.854;2023-05-18T09:09:14;5.43;;;2.80;;
73452;SDS011;61687;56.232;43.854;2023-05-18T09:11:40;5.97;;;2.70;;
73452;SDS011;61687;56.232;43.854;2023-05-18T09:14:06;9.32;;;4.25;;
73452;SDS011;61687;56.232;43.854;2023-05-18T09:16:32;8.90;;;2.88;;
73452;SDS011;61687;56.232;43.854;2023-05-18T09:18:58;4.80;;;2.72;;
73452;SDS011;61687;56.232;43.854;2023-05-18T09:21:25;5.97;;;2.90;;
73452;SDS011;61687;56.232;43.854;2023-05-18T09:23:51;5.45;;;2.58;;
73452;SDS011;61687;56.232;43.854;2023-05-18T09:26:18;8.23;;;2.67;;
73452;SDS011;61687;56.232;43.854;2023-05-18T09:28:46;4.68;;;2.45;;
73452;SDS011;61687;56.232;43.854;2023-05-18T09:31:18;6.25;;;2.83;;
73452;SDS011;61687;56.232;43.854;2023-05-18T09:33:45;5.83;;;2.83;;
73452;SDS011;61687;56.232;43.854;2023-05-18T09:36:12;4.63;;;2.67;;
73452;SDS011;61687;56.232;43.854;2023-05-18T09:38:42;7.68;;;3.05;;
73452;SDS011;61687;56.232;43.854;2023-05-18T09:41:15;5.55;;;3.00;;
73452;SDS011;61687;56.232;43.854;2023-05-18T09:43:42;6.35;;;2.92;;
73452;SDS011;61687;56.232;43.854;2023-05-18T09:46:10;5.30;;;2.90;;
73452;SDS011;61687;56.232;43.854;2023-05-18T09:48:41;5.57;;;3.63;;
73452;SDS011;61687;56.232;43.854;2023-05-18T09:51:13;6.15;;;3.75;;
73452;SDS011;61687;56.232;43.854;2023-05-18T09:56:17;5.63;;;3.13;;
73452;SDS011;61687;56.232;43.854;2023-05-18T09:58:43;5.83;;;3.10;;
73452;SDS011;61687;56.232;43.854;2023-05-18T10:01:10;4.88;;;3.10;;
73452;SDS011;61687;56.232;43.854;2023-05-18T10:03:36;10.10;;;3.40;;
73452;SDS011;61687;56.232;43.854;2023-05-18T10:06:03;5.60;;;3.20;;
73452;SDS011;61687;56.232;43.854;2023-05-18T10:08:31;9.70;;;3.33;;
73452;SDS011;61687;56.232;43.854;2023-05-18T10:10:59;6.20;;;3.40;;
73452;SDS011;61687;56.232;43.854;2023-05-18T10:13:26;6.53;;;3.60;;
73452;SDS011;61687;56.232;43.854;2023-05-18T10:15:54;5.22;;;3.58;;
73452;SDS011;61687;56.232;43.854;2023-05-18T10:18:39;5.00;;;3.67;;
73452;SDS011;61687;56.232;43.854;2023-05-18T10:21:05;6.73;;;3.63;;
73452;SDS011;61687;56.232;43.854;2023-05-18T10:23:33;6.63;;;4.00;;
73452;SDS011;61687;56.232;43.854;2023-05-18T10:26:03;8.00;;;3.63;;
73452;SDS011;61687;56.232;43.854;2023-05-18T10:28:37;10.23;;;3.47;;
73452;SDS011;61687;56.232;43.854;2023-05-18T10:31:06;8.27;;;3.70;;
73452;SDS011;61687;56.232;43.854;2023-05-18T10:33:33;5.00;;;3.30;;
73452;SDS011;61687;56.232;43.854;2023-05-18T10:36:04;8.82;;;3.67;;
73452;SDS011;61687;56.232;43.854;2023-05-18T10:38:31;6.53;;;4.50;;
73452;SDS011;61687;56.232;43.854;2023-05-18T10:40:58;11.48;;;4.00;;
73452;SDS011;61687;56.232;43.854;2023-05-18T10:43:25;8.15;;;3.30;;
73452;SDS011;61687;56.232;43.854;2023-05-18T10:45:56;8.77;;;3.10;;
73452;SDS011;61687;56.232;43.854;2023-05-18T10:48:24;5.25;;;3.03;;
73452;SDS011;61687;56.232;43.854;2023-05-18T10:50:52;5.97;;;2.92;;
73452;SDS011;61687;56.232;43.854;2023-05-18T10:53:27;6.55;;;3.90;;
73452;SDS011;61687;56.232;43.854;2023-05-18T10:55:56;8.23;;;3.60;;
73452;SDS011;61687;56.232;43.854;2023-05-18T10:58:26;8.77;;;4.70;;
73452;SDS011;61687;56.232;43.854;2023-05-18T11:00:54;9.77;;;4.53;;
73452;SDS011;61687;56.232;43.854;2023-05-18T11:03:22;6.22;;;3.75;;
73452;SDS011;61687;56.232;43.854;2023-05-18T11:06:01;7.50;;;4.00;;
73452;SDS011;61687;56.232;43.854;2023-05-18T11:08:32;11.95;;;4.25;;
73452;SDS011;61687;56.232;43.854;2023-05-18T11:11:02;9.57;;;4.17;;
73452;SDS011;61687;56.232;43.854;2023-05-18T11:13:32;6.93;;;3.30;;
73452;SDS011;61687;56.232;43.854;2023-05-18T11:21:19;7.85;;;3.45;;
73452;SDS011;61687;56.232;43.854;2023-05-18T11:24:11;8.73;;;4.40;;
73452;SDS011;61687;56.232;43.854;2023-05-18T11:26:53;5.85;;;4.00;;
73452;SDS011;61687;56.232;43.854;2023-05-18T11:32:01;7.30;;;3.45;;
73452;SDS011;61687;56.232;43.854;2023-05-18T11:34:44;4.72;;;3.15;;
73452;SDS011;61687;56.232;43.854;2023-05-18T11:37:15;5.60;;;2.83;;
73452;SDS011;61687;56.232;43.854;2023-05-18T11:39:52;8.73;;;2.75;;
73452;SDS011;61687;56.232;43.854;2023-05-18T11:42:19;8.93;;;3.50;;
73452;SDS011;61687;56.232;43.854;2023-05-18T11:44:52;7.47;;;2.80;;
73452;SDS011;61687;56.232;43.854;2023-05-18T11:47:22;5.72;;;3.05;;
73452;SDS011;61687;56.232;43.854;2023-05-18T11:49:55;8.30;;;3.90;;
73452;SDS011;61687;56.232;43.854;2023-05-18T11:52:22;7.07;;;4.15;;
73452;SDS011;61687;56.232;43.854;2023-05-18T11:54:53;10.68;;;4.63;;
73452;SDS011;61687;56.232;43.854;2023-05-18T11:59:58;9.48;;;4.05;;
73452;SDS011;61687;56.232;43.854;2023-05-18T12:04:59;10.00;;;4.57;;
73452;SDS011;61687;56.232;43.854;2023-05-18T12:07:29;9.40;;;4.00;;
73452;SDS011;61687;56.232;43.854;2023-05-18T12:10:00;6.75;;;3.50;;
73452;SDS011;61687;56.232;43.854;2023-05-18T12:12:31;5.57;;;3.53;;
73452;SDS011;61687;56.232;43.854;2023-05-18T12:14:59;13.20;;;4.03;;
73452;SDS011;61687;56.232;43.854;2023-05-18T12:17:46;16.52;;;4.50;;
73452;SDS011;61687;56.232;43.854;2023-05-18T12:20:13;7.18;;;3.63;;
73452;SDS011;61687;56.232;43.854;2023-05-18T12:22:47;5.93;;;3.85;;
73452;SDS011;61687;56.232;43.854;2023-05-18T12:25:14;6.55;;;4.05;;
73452;SDS011;61687;56.232;43.854;2023-05-18T12:27:41;5.30;;;3.60;;
73452;SDS011;61687;56.232;43.854;2023-05-18T12:30:11;14.80;;;4.57;;
73452;SDS011;61687;56.232;43.854;2023-05-18T12:32:44;7.47;;;4.13;;
73452;SDS011;61687;56.232;43.854;2023-05-18T12:35:15;8.00;;;4.25;;
73452;SDS011;61687;56.232;43.854;2023-05-18T12:37:45;5.87;;;4.33;;
73452;SDS011;61687;56.232;43.854;2023-05-18T12:40:14;7.00;;;3.70;;
73452;SDS011;61687;56.232;43.854;2023-05-18T12:42:54;7.10;;;3.65;;
73452;SDS011;61687;56.232;43.854;2023-05-18T12:45:21;5.53;;;3.30;;
73452;SDS011;61687;56.232;43.854;2023-05-18T12:47:52;6.57;;;3.47;;
73452;SDS011;61687;56.232;43.854;2023-05-18T12:50:22;5.80;;;3.57;;
73452;SDS011;61687;56.232;43.854;2023-05-18T12:52:50;9.25;;;3.72;;
73452;SDS011;61687;56.232;43.854;2023-05-18T12:55:17;7.82;;;3.67;;
73452;SDS011;61687;56.232;43.854;2023-05-18T13:00:36;5.75;;;3.55;;
73452;SDS011;61687;56.232;43.854;2023-05-18T13:03:05;5.90;;;3.30;;
73452;SDS011;61687;56.232;43.854;2023-05-18T13:05:35;4.57;;;3.30;;
73452;SDS011;61687;56.232;43.854;2023-05-18T13:08:01;5.72;;;3.72;;
73452;SDS011;61687;56.232;43.854;2023-05-18T13:10:30;9.48;;;3.80;;
73452;SDS011;61687;56.232;43.854;2023-05-18T13:12:57;6.50;;;3.33;;
73452;SDS011;61687;56.232;43.854;2023-05-18T13:15:37;8.05;;;4.10;;
73452;SDS011;61687;56.232;43.854;2023-05-18T13:18:04;6.05;;;4.22;;
73452;SDS011;61687;56.232;43.854;2023-05-18T13:20:35;5.38;;;3.70;;
73452;SDS011;61687;56.232;43.854;2023-05-18T13:23:08;5.82;;;3.75;;
73452;SDS011;61687;56.232;43.854;2023-05-18T13:25:41;5.90;;;3.80;;
73452;SDS011;61687;56.232;43.854;2023-05-18T13:28:07;4.35;;;3.30;;
73452;SDS011;61687;56.232;43.854;2023-05-18T13:30:35;5.22;;;3.50;;
73452;SDS011;61687;56.232;43.854;2023-05-18T13:33:02;5.57;;;3.72;;
73452;SDS011;61687;56.232;43.854;2023-05-18T13:35:28;6.03;;;3.20;;
73452;SDS011;61687;56.232;43.854;2023-05-18T13:37:54;7.10;;;3.20;;
73452;SDS011;61687;56.232;43.854;2023-05-18T13:40:20;6.97;;;3.70;;
73452;SDS011;61687;56.232;43.854;2023-05-18T13:42:48;8.70;;;3.30;;
73452;SDS011;61687;56.232;43.854;2023-05-18T13:45:13;6.13;;;3.30;;
73452;SDS011;61687;56.232;43.854;2023-05-18T13:47:40;5.28;;;3.40;;
73452;SDS011;61687;56.232;43.854;2023-05-18T13:50:06;9.70;;;3.90;;
73452;SDS011;61687;56.232;43.854;2023-05-18T13:52:34;25.52;;;4.55;;
73452;SDS011;61687;56.232;43.854;2023-05-18T13:55:01;7.13;;;3.75;;
73452;SDS011;61687;56.232;43.854;2023-05-18T13:57:29;6.77;;;3.43;;
73452;SDS011;61687;56.232;43.854;2023-05-18T13:59:56;7.63;;;3.50;;
73452;SDS011;61687;56.232;43.854;2023-05-18T14:02:24;7.50;;;3.03;;
73452;SDS011;61687;56.232;43.854;2023-05-18T14:04:50;4.60;;;3.05;;
73452;SDS011;61687;56.232;43.854;2023-05-18T14:07:17;10.80;;;3.03;;
73452;SDS011;61687;56.232;43.854;2023-05-18T14:09:42;7.20;;;3.10;;
73452;SDS011;61687;56.232;43.854;2023-05-18T14:12:08;6.93;;;3.15;;
73452;SDS011;61687;56.232;43.854;2023-05-18T14:14:35;5.65;;;2.85;;
73452;SDS011;61687;56.232;43.854;2023-05-18T14:17:01;7.70;;;3.13;;
73452;SDS011;61687;56.232;43.854;2023-05-18T14:19:27;8.10;;;3.00;;
73452;SDS011;61687;56.232;43.854;2023-05-18T14:21:53;4.18;;;2.80;;
73452;SDS011;61687;56.232;43.854;2023-05-18T14:24:19;6.27;;;3.47;;
73452;SDS011;61687;56.232;43.854;2023-05-18T14:26:45;7.03;;;2.80;;
73452;SDS011;61687;56.232;43.854;2023-05-18T14:29:10;8.20;;;4.20;;
73452;SDS011;61687;56.232;43.854;2023-05-18T14:31:36;5.47;;;3.20;;
73452;SDS011;61687;56.232;43.854;2023-05-18T14:34:02;8.70;;;2.50;;
73452;SDS011;61687;56.232;43.854;2023-05-18T14:36:28;4.60;;;2.60;;
73452;SDS011;61687;56.232;43.854;2023-05-18T14:38:54;10.15;;;3.58;;
73452;SDS011;61687;56.232;43.854;2023-05-18T14:41:19;5.80;;;3.50;;
73452;SDS011;61687;56.232;43.854;2023-05-18T14:43:46;6.55;;;3.47;;
73452;SDS011;61687;56.232;43.854;2023-05-18T14:46:12;6.15;;;3.70;;
73452;SDS011;61687;56.232;43.854;2023-05-18T14:48:38;11.23;;;4.37;;
73452;SDS011;61687;56.232;43.854;2023-05-18T14:51:04;9.85;;;3.30;;
73452;SDS011;61687;56.232;43.854;2023-05-18T14:53:29;6.72;;;3.00;;
73452;SDS011;61687;56.232;43.854;2023-05-18T14:55:55;7.70;;;3.17;;
73452;SDS011;61687;56.232;43.854;2023-05-18T14:58:21;8.65;;;3.58;;